createdAt,value
2023-01-17T00:00:07.240Z,95.79
2023-01-17T00:02:36.650Z,95.84
2023-01-17T00:05:26.074Z,96.59
2023-01-17T00:08:11.580Z,97.50
2023-01-17T00:10:43.511Z,97.63
2023-01-17T00:13:13.042Z,97.40
2023-01-17T00:15:42.631Z,97.57
2023-01-17T00:18:09.545Z,97.58
2023-01-17T00:20:54.814Z,96.86
2023-01-17T00:24:00.500Z,96.34
2023-01-17T00:26:31.259Z,96.71
2023-01-17T00:29:03.938Z,96.83
2023-01-17T00:31:30.650Z,96.96
2023-01-17T00:33:59.968Z,96.36
2023-01-17T00:36:28.577Z,97.13
2023-01-17T00:38:55.127Z,96.28
2023-01-17T00:41:21.897Z,96.16
2023-01-17T00:44:09.578Z,95.73
2023-01-17T00:46:57.044Z,96.22
2023-01-17T00:49:42.602Z,96.37
2023-01-17T00:52:30.088Z,95.94
2023-01-17T00:55:15.530Z,96.03
2023-01-17T00:58:00.912Z,96.22
2023-01-17T01:00:46.179Z,96.22
2023-01-17T01:03:32.356Z,95.84
2023-01-17T01:06:22.629Z,95.72
2023-01-17T01:09:08.026Z,95.62
2023-01-17T01:11:53.286Z,95.34
2023-01-17T01:14:41.316Z,94.89
2023-01-17T01:17:26.615Z,95.33
2023-01-17T01:20:14.198Z,95.15
2023-01-17T01:23:01.908Z,94.76
2023-01-17T01:25:47.224Z,94.75
2023-01-17T01:28:33.422Z,95.46
2023-01-17T01:31:24.964Z,96.26
2023-01-17T01:33:54.850Z,95.38
2023-01-17T01:36:21.653Z,95.39
2023-01-17T01:39:07.386Z,96.26
2023-01-17T01:41:34.385Z,95.88
2023-01-17T01:44:03.349Z,96.23
2023-01-17T01:46:34.205Z,96.27
2023-01-17T01:49:09.333Z,96.47
2023-01-17T01:51:41.571Z,97.12
2023-01-17T01:54:17.893Z,97.04
2023-01-17T01:56:45.793Z,97.19
2023-01-17T01:59:18.619Z,97.58
2023-01-17T02:01:49.617Z,97.43
2023-01-17T02:04:17.244Z,96.47
2023-01-17T02:06:51.841Z,96.41
2023-01-17T02:09:19.242Z,96.58
2023-01-17T02:11:47.423Z,96.16
2023-01-17T02:14:21.972Z,95.60
2023-01-17T02:17:00.840Z,96.06
2023-01-17T02:19:42.549Z,95.94
2023-01-17T02:22:27.807Z,96.21
2023-01-17T02:25:21.876Z,95.80
2023-01-17T02:28:09.957Z,95.71
2023-01-17T02:30:42.039Z,96.23
2023-01-17T02:33:13.918Z,96.89
2023-01-17T02:36:04.336Z,97.60
2023-01-17T02:38:40.897Z,98.29
2023-01-17T02:41:14.753Z,97.50
2023-01-17T02:43:41.597Z,97.90
2023-01-17T02:46:09.769Z,98.22
2023-01-17T02:48:39.573Z,97.94
2023-01-17T02:51:12.396Z,98.33
2023-01-17T02:53:43.155Z,98.40
2023-01-17T02:56:28.183Z,98.17
2023-01-17T02:59:14.468Z,97.59
2023-01-17T03:01:56.799Z,98.29
2023-01-17T03:04:42.882Z,97.98
2023-01-17T03:07:17.857Z,97.83
2023-01-17T03:09:53.553Z,97.11
2023-01-17T03:12:23.154Z,96.55
2023-01-17T03:14:52.084Z,96.55
2023-01-17T03:17:19.095Z,97.06
2023-01-17T03:19:48.544Z,96.98
2023-01-17T03:22:20.143Z,96.64
2023-01-17T03:24:46.971Z,96.55
2023-01-17T03:27:13.779Z,96.23
2023-01-17T03:29:45.407Z,96.00
2023-01-17T03:32:14.072Z,95.50
2023-01-17T03:34:40.764Z,94.58
2023-01-17T03:37:09.564Z,95.08
2023-01-17T03:39:36.217Z,95.03
2023-01-17T03:42:05.081Z,95.46
2023-01-17T03:44:31.986Z,94.66
2023-01-17T03:46:58.595Z,95.25
2023-01-17T03:49:25.634Z,95.15
2023-01-17T03:51:52.865Z,95.33
2023-01-17T03:54:19.600Z,95.74
2023-01-17T03:56:46.190Z,96.05
2023-01-17T03:59:13.322Z,95.17
2023-01-17T04:01:43.067Z,95.42
2023-01-17T04:04:10.060Z,96.11
2023-01-17T04:06:36.645Z,96.23
2023-01-17T04:09:08.140Z,96.65
2023-01-17T04:11:34.934Z,95.71
2023-01-17T04:14:01.554Z,94.92
2023-01-17T04:16:34.756Z,95.53
2023-01-17T04:19:04.096Z,95.32
2023-01-17T04:21:33.370Z,95.30
2023-01-17T04:24:05.375Z,94.84
2023-01-17T04:26:32.007Z,94.92
2023-01-17T04:29:00.931Z,94.54
2023-01-17T04:31:33.477Z,94.39
2023-01-17T04:34:02.340Z,95.26
2023-01-17T04:36:28.996Z,95.34
2023-01-17T04:38:57.853Z,95.87
2023-01-17T04:41:24.519Z,95.56
2023-01-17T04:43:51.165Z,95.72
2023-01-17T04:46:17.851Z,95.36
2023-01-17T04:48:44.524Z,95.66
2023-01-17T04:51:13.647Z,95.34
2023-01-17T04:53:42.394Z,95.39
2023-01-17T04:56:09.142Z,95.36
2023-01-17T04:58:40.644Z,94.94
2023-01-17T05:01:10.939Z,95.20
2023-01-17T05:03:39.751Z,95.21
2023-01-17T05:06:06.349Z,95.29
2023-01-17T05:08:33.099Z,94.99
2023-01-17T05:11:02.352Z,95.45
2023-01-17T05:13:31.297Z,95.44
2023-01-17T05:16:00.476Z,95.36
2023-01-17T05:18:32.199Z,95.25
2023-01-17T05:21:05.085Z,94.88
2023-01-17T05:23:33.122Z,95.15
2023-01-17T05:26:02.202Z,95.11
2023-01-17T05:28:34.129Z,94.49
2023-01-17T05:31:00.974Z,93.94
2023-01-17T05:33:30.159Z,94.39
2023-01-17T05:35:56.901Z,95.20
2023-01-17T05:38:24.066Z,95.44
2023-01-17T05:40:55.901Z,95.51
2023-01-17T05:43:23.031Z,95.83
2023-01-17T05:45:52.123Z,95.77
2023-01-17T05:48:21.058Z,95.85
2023-01-17T05:50:50.032Z,95.79
2023-01-17T05:53:17.086Z,96.04
2023-01-17T06:01:02.969Z,95.39
2023-01-17T06:03:32.017Z,95.17
2023-01-17T06:05:58.548Z,95.52
2023-01-17T06:08:25.126Z,95.44
2023-01-17T06:10:54.002Z,95.72
2023-01-17T06:13:23.412Z,96.09
2023-01-17T06:15:52.558Z,96.45
2023-01-17T06:18:19.225Z,96.01
2023-01-17T06:20:55.056Z,96.70
2023-01-17T06:23:23.033Z,96.84
2023-01-17T06:25:50.188Z,95.91
2023-01-17T06:28:19.423Z,96.41
2023-01-17T06:30:48.221Z,96.65
2023-01-17T06:33:15.645Z,97.05
2023-01-17T06:35:55.427Z,97.18
2023-01-17T06:38:22.177Z,96.77
2023-01-17T06:40:48.872Z,97.62
2023-01-17T06:43:17.744Z,97.23
2023-01-17T06:45:44.288Z,98.88
2023-01-17T06:48:15.794Z,98.30
2023-01-17T06:50:49.744Z,97.07
2023-01-17T06:53:24.610Z,96.05
2023-01-17T06:55:53.444Z,96.46
2023-01-17T06:58:20.184Z,96.83
2023-01-17T07:00:48.864Z,97.28
2023-01-17T07:03:23.403Z,96.92
2023-01-17T07:05:50.096Z,96.65
2023-01-17T07:08:17.671Z,97.42
2023-01-17T07:10:45.612Z,97.37
2023-01-17T07:13:13.401Z,96.96
2023-01-17T07:15:40.260Z,96.38
2023-01-17T07:18:09.477Z,96.10
2023-01-17T07:20:36.089Z,95.70
2023-01-17T07:23:03.293Z,96.66
2023-01-17T07:25:32.874Z,96.42
2023-01-17T07:27:59.472Z,95.65
2023-01-17T07:30:27.024Z,94.96
2023-01-17T07:32:56.713Z,94.67
2023-01-17T07:35:26.796Z,94.82
2023-01-17T07:37:56.407Z,95.00
2023-01-17T07:40:24.401Z,94.54
2023-01-17T07:42:51.017Z,94.90
2023-01-17T07:45:21.932Z,95.38
2023-01-17T07:47:50.830Z,95.30
2023-01-17T07:50:19.603Z,94.29
2023-01-17T07:52:51.921Z,92.87
2023-01-17T07:55:19.265Z,92.36
2023-01-17T07:57:49.229Z,92.33
2023-01-17T08:00:16.327Z,92.32
2023-01-17T08:02:42.872Z,92.28
2023-01-17T08:05:14.263Z,92.14
2023-01-17T08:07:43.317Z,93.39
2023-01-17T08:10:13.194Z,93.29
2023-01-17T08:12:41.940Z,92.23
2023-01-17T08:15:09.373Z,91.97
2023-01-17T08:17:41.148Z,92.98
2023-01-17T08:20:07.870Z,92.98
2023-01-17T08:22:34.599Z,92.95
2023-01-17T08:25:01.137Z,92.82
2023-01-17T08:27:31.075Z,93.82
2023-01-17T08:29:57.746Z,93.00
2023-01-17T08:32:26.413Z,92.31
2023-01-17T08:34:57.151Z,90.46
2023-01-17T08:37:27.066Z,90.86
2023-01-17T08:39:55.914Z,91.91
2023-01-17T08:42:27.283Z,90.83
2023-01-17T08:44:53.893Z,90.33
2023-01-17T08:47:20.496Z,92.16
2023-01-17T08:49:49.467Z,92.66
2023-01-17T08:52:18.395Z,92.74
2023-01-17T08:54:49.686Z,91.90
2023-01-17T08:57:18.865Z,91.02
2023-01-17T08:59:45.442Z,89.80
2023-01-17T09:02:15.104Z,91.22
2023-01-17T09:04:48.512Z,91.21
2023-01-17T09:07:18.981Z,89.21
2023-01-17T09:09:45.587Z,88.13
2023-01-17T09:12:12.455Z,85.74
2023-01-17T09:14:39.061Z,84.49
2023-01-17T09:17:07.049Z,87.33
2023-01-17T09:19:35.410Z,87.39
2023-01-17T09:22:04.439Z,86.85
2023-01-17T09:24:32.846Z,86.02
2023-01-17T09:27:00.160Z,85.78
2023-01-17T09:29:26.737Z,85.84
2023-01-17T09:31:57.840Z,85.68
2023-01-17T09:34:26.608Z,84.71
2023-01-17T09:36:56.961Z,87.17
2023-01-17T09:39:26.011Z,87.15
2023-01-17T09:42:17.197Z,86.32
2023-01-17T09:44:51.548Z,84.51
2023-01-17T09:47:45.395Z,83.62
2023-01-17T09:50:15.449Z,84.42
2023-01-17T09:52:46.978Z,82.47
2023-01-17T09:55:16.121Z,82.70
2023-01-17T09:57:55.042Z,82.95
2023-01-17T10:00:39.763Z,82.80
2023-01-17T10:03:52.532Z,84.28
2023-01-17T10:06:23.849Z,82.48
2023-01-17T10:09:15.433Z,82.48
2023-01-17T10:11:42.297Z,81.62
2023-01-17T10:14:18.400Z,80.86
2023-01-17T10:16:45.119Z,80.40
2023-01-17T10:19:42.334Z,81.20
2023-01-17T10:22:18.038Z,80.92
2023-01-17T10:25:13.228Z,81.02
2023-01-17T10:27:51.511Z,80.90
2023-01-17T10:30:27.886Z,81.87
2023-01-17T10:32:59.728Z,79.77
2023-01-17T10:35:33.593Z,78.12
2023-01-17T10:38:05.943Z,79.10
2023-01-17T10:40:50.248Z,78.28
2023-01-17T10:43:45.462Z,79.99
2023-01-17T10:46:21.977Z,77.10
2023-01-17T10:48:52.033Z,77.52
2023-01-17T10:51:34.115Z,76.94
2023-01-17T10:54:27.837Z,77.07
2023-01-17T10:57:00.222Z,76.05
2023-01-17T10:59:38.139Z,77.14
2023-01-17T11:02:19.028Z,76.98
2023-01-17T11:04:50.174Z,76.23
2023-01-17T11:07:19.513Z,74.74
2023-01-17T11:09:51.809Z,73.71
2023-01-17T11:12:37.134Z,73.80
2023-01-17T11:15:09.581Z,74.01
2023-01-17T11:17:49.948Z,75.00
2023-01-17T11:20:20.192Z,72.48
2023-01-17T11:23:21.243Z,72.73
2023-01-17T11:26:00.326Z,73.35
2023-01-17T11:28:31.969Z,74.07
2023-01-17T11:31:09.255Z,72.04
2023-01-17T11:33:56.612Z,72.02
2023-01-17T11:36:30.075Z,72.41
2023-01-17T11:39:05.728Z,69.97
2023-01-17T11:41:40.864Z,72.20
2023-01-17T11:44:28.268Z,71.94
2023-01-17T11:47:07.611Z,68.21
2023-01-17T11:49:36.926Z,72.96
2023-01-17T11:52:18.721Z,68.53
2023-01-17T11:54:49.706Z,66.45
2023-01-17T11:57:34.945Z,69.89
2023-01-17T12:00:23.986Z,69.70
2023-01-17T12:02:55.839Z,69.81
2023-01-17T12:05:27.988Z,68.16
2023-01-17T12:08:26.121Z,66.77
2023-01-17T12:11:18.857Z,64.98
2023-01-17T12:14:06.647Z,64.53
2023-01-17T12:16:51.559Z,61.00
2023-01-17T12:19:32.353Z,66.13
2023-01-17T12:22:20.382Z,66.88
2023-01-17T12:25:15.325Z,62.52
2023-01-17T12:28:15.853Z,64.17
2023-01-17T12:31:20.777Z,65.25
2023-01-17T12:33:53.756Z,69.66
2023-01-17T12:37:08.423Z,68.19
2023-01-17T12:39:46.586Z,68.91
2023-01-17T12:42:24.129Z,71.51
2023-01-17T12:44:57.986Z,76.84
2023-01-17T12:47:25.704Z,71.35
2023-01-17T12:50:03.215Z,62.68
2023-01-17T12:52:38.944Z,61.82
2023-01-17T12:55:12.082Z,61.54
2023-01-17T12:57:47.502Z,63.37
2023-01-17T13:00:23.097Z,62.02
2023-01-17T13:02:55.247Z,63.54
2023-01-17T13:05:44.777Z,64.09
2023-01-17T13:08:49.652Z,66.25
2023-01-17T13:11:23.236Z,66.18
2023-01-17T13:13:57.585Z,68.88
2023-01-17T13:16:51.336Z,70.07
2023-01-17T13:19:29.005Z,69.12
2023-01-17T13:21:57.083Z,69.70
2023-01-17T13:24:31.240Z,70.27
2023-01-17T13:27:09.970Z,70.91
2023-01-17T13:29:42.540Z,71.01
2023-01-17T13:32:27.631Z,72.44
2023-01-17T13:35:13.073Z,73.43
2023-01-17T13:37:57.192Z,73.73
2023-01-17T13:41:06.292Z,75.12
2023-01-17T13:44:01.948Z,75.76
2023-01-17T13:47:04.137Z,74.91
2023-01-17T13:49:34.245Z,74.45
2023-01-17T13:52:10.692Z,75.03
2023-01-17T13:55:05.297Z,75.78
2023-01-17T13:57:46.218Z,77.13
2023-01-17T14:00:16.415Z,75.94
2023-01-17T14:02:43.620Z,75.29
2023-01-17T14:05:21.189Z,75.42
2023-01-17T14:08:03.109Z,76.10
2023-01-17T14:41:43.218Z,77.79
2023-01-17T15:21:55.666Z,77.83
2023-01-17T15:24:34.485Z,78.15
2023-01-17T15:27:01.894Z,78.01
2023-01-17T15:29:33.625Z,78.11
2023-01-17T15:32:05.451Z,78.81
2023-01-17T15:34:36.378Z,77.74
2023-01-17T15:37:05.743Z,77.57
2023-01-17T15:40:01.761Z,78.02
2023-01-17T15:42:31.834Z,78.27
2023-01-17T15:45:31.333Z,78.16
2023-01-17T15:48:45.091Z,77.65
2023-01-17T15:51:37.385Z,77.35
2023-01-17T15:54:52.805Z,77.41
2023-01-17T15:57:47.974Z,77.58
2023-01-17T16:00:45.551Z,76.74
2023-01-17T16:03:31.676Z,77.50
2023-01-17T16:06:47.485Z,76.91
2023-01-17T16:09:25.715Z,76.33
2023-01-17T16:11:54.732Z,76.98
2023-01-17T16:14:32.327Z,77.92
2023-01-17T16:17:21.860Z,77.86
2023-01-17T16:19:48.411Z,77.17
2023-01-17T16:22:14.999Z,78.89
2023-01-17T16:24:41.559Z,76.46
2023-01-17T16:27:11.570Z,77.12
2023-01-17T16:29:38.123Z,76.42
2023-01-17T16:32:08.931Z,76.94
2023-01-17T16:34:40.312Z,77.91
2023-01-17T16:37:09.354Z,79.46
2023-01-17T16:39:50.127Z,80.58
2023-01-17T16:42:16.711Z,81.42
2023-01-17T16:44:48.243Z,82.15
2023-01-17T16:47:41.806Z,84.00
2023-01-17T16:50:23.683Z,84.17
2023-01-17T16:52:59.670Z,86.09
2023-01-17T16:55:26.724Z,86.14
2023-01-17T16:57:59.781Z,86.64
2023-01-17T17:00:36.759Z,88.58
2023-01-17T17:03:03.529Z,89.66
2023-01-17T17:05:33.445Z,90.99
2023-01-17T17:11:30.725Z,91.80
2023-01-17T17:14:06.242Z,91.63
2023-01-17T17:16:39.015Z,92.67
2023-01-17T17:19:15.295Z,93.13
2023-01-17T17:21:55.263Z,93.43
2023-01-17T17:24:27.941Z,93.45
2023-01-17T17:29:37.981Z,94.02
2023-01-17T17:32:13.947Z,94.40
2023-01-17T17:34:42.751Z,94.92
2023-01-17T17:37:10.391Z,95.03
2023-01-17T17:39:36.988Z,95.06
2023-01-17T17:42:08.125Z,95.47
2023-01-17T17:44:35.598Z,94.58
2023-01-17T17:47:02.478Z,94.95
2023-01-17T17:49:29.009Z,94.44
2023-01-17T17:52:03.795Z,94.85
2023-01-17T17:54:30.409Z,94.96
2023-01-17T17:56:56.987Z,94.97
2023-01-17T17:59:24.024Z,95.18
2023-01-17T18:01:51.503Z,95.25
2023-01-17T18:04:21.687Z,96.04
2023-01-17T18:06:51.290Z,96.09
2023-01-17T18:09:18.018Z,96.03
2023-01-17T18:11:44.709Z,96.69
2023-01-17T18:14:17.807Z,96.32
2023-01-17T18:16:45.346Z,95.91
2023-01-17T18:19:20.986Z,96.10
2023-01-17T18:21:48.797Z,96.19
2023-01-17T18:24:17.370Z,96.61
2023-01-17T18:26:50.150Z,96.88
2023-01-17T18:29:18.933Z,97.28
2023-01-17T18:31:47.127Z,97.44
2023-01-17T18:34:39.428Z,97.20
2023-01-17T18:37:06.056Z,97.41
2023-01-17T18:39:32.701Z,97.63
2023-01-17T18:42:01.719Z,97.33
2023-01-17T18:44:30.779Z,97.75
2023-01-17T18:47:04.849Z,97.97
2023-01-17T18:49:35.059Z,98.46
2023-01-17T18:52:09.447Z,98.48
2023-01-17T19:01:53.832Z,99.46
2023-01-17T19:04:35.992Z,98.63
2023-01-17T19:07:05.007Z,98.72
2023-01-17T19:09:34.150Z,98.90
2023-01-17T19:12:03.040Z,98.71
2023-01-17T19:14:32.501Z,98.97
2023-01-17T19:17:01.726Z,98.74
2023-01-17T19:19:28.358Z,99.17
2023-01-17T19:21:57.560Z,99.41
2023-01-17T19:24:27.751Z,99.56
2023-01-17T19:26:56.604Z,99.33
2023-01-17T19:29:23.574Z,99.71
2023-01-17T19:31:55.601Z,99.83
2023-01-17T19:34:25.363Z,99.52
2023-01-17T19:36:53.195Z,99.53
2023-01-17T19:39:20.575Z,99.72
2023-01-17T19:41:47.107Z,99.93
2023-01-17T19:44:16.301Z,99.96
2023-01-17T19:46:46.256Z,99.96
2023-01-17T19:49:23.916Z,100.00
2023-01-17T19:51:51.295Z,100.00
2023-01-17T19:54:23.711Z,99.99
2023-01-17T19:56:52.629Z,100.00
2023-01-17T19:59:20.106Z,100.00
2023-01-17T20:01:48.060Z,100.00
2023-01-17T20:04:18.022Z,100.00
2023-01-17T20:06:46.177Z,100.00
2023-01-17T20:09:13.604Z,100.00
2023-01-17T20:11:43.492Z,100.00
2023-01-17T20:14:14.276Z,100.00
2023-01-17T20:16:45.081Z,100.00
2023-01-17T20:19:13.793Z,99.94
2023-01-17T20:21:40.338Z,100.00
2023-01-17T20:24:09.673Z,100.00
2023-01-17T20:26:36.319Z,100.00
2023-01-17T20:29:10.077Z,100.00
2023-01-17T20:31:43.459Z,100.00
2023-01-17T20:34:13.045Z,100.00
2023-01-17T20:36:46.752Z,100.00
2023-01-17T20:39:17.057Z,100.00
2023-01-17T20:41:46.407Z,100.00
2023-01-17T20:44:14.932Z,100.00
2023-01-17T20:46:42.118Z,100.00
2023-01-17T20:49:16.040Z,100.00
2023-01-17T20:51:46.167Z,100.00
2023-01-17T20:54:15.282Z,100.00
2023-01-17T20:56:47.207Z,100.00
2023-01-17T20:59:17.338Z,100.00
2023-01-17T21:01:48.938Z,100.00
2023-01-17T21:04:16.507Z,100.00
2023-01-17T21:06:46.601Z,100.00
2023-01-17T21:09:17.290Z,100.00
2023-01-17T21:11:48.385Z,99.88
2023-01-17T21:14:17.635Z,99.90
2023-01-17T21:16:44.659Z,100.00
2023-01-17T21:19:16.326Z,99.92
2023-01-17T21:21:45.210Z,100.00
2023-01-17T21:24:19.163Z,100.00
2023-01-17T21:26:46.862Z,99.99
2023-01-17T21:29:16.030Z,100.00
2023-01-17T21:31:42.821Z,100.00
2023-01-17T21:37:56.794Z,100.00
2023-01-17T21:40:23.588Z,100.00
2023-01-17T21:42:52.906Z,100.00
2023-01-17T21:45:19.353Z,100.00
2023-01-17T21:47:45.893Z,99.69
2023-01-17T21:50:32.051Z,99.99
2023-01-17T21:53:02.858Z,99.84
2023-01-17T21:55:50.150Z,99.74
2023-01-17T21:58:37.626Z,99.93
2023-01-17T22:01:18.041Z,99.76
2023-01-17T22:03:54.497Z,100.00
2023-01-17T22:06:24.958Z,100.00
2023-01-17T22:08:51.910Z,100.00
2023-01-17T22:11:20.759Z,100.00
2023-01-17T22:13:52.341Z,100.00
2023-01-17T22:16:21.375Z,100.00
2023-01-17T22:18:50.240Z,100.00
2023-01-17T22:21:22.531Z,100.00
2023-01-17T22:23:53.619Z,100.00
2023-01-17T22:26:27.484Z,100.00
2023-01-17T22:28:59.144Z,100.00
2023-01-17T22:31:30.356Z,100.00
2023-01-17T22:34:02.875Z,100.00
2023-01-17T22:36:37.815Z,100.00
2023-01-17T22:39:04.700Z,100.00
2023-01-17T22:41:37.390Z,100.00
2023-01-17T22:44:07.699Z,100.00
2023-01-17T22:46:39.304Z,100.00
2023-01-17T22:49:13.433Z,99.82
2023-01-17T22:51:42.911Z,100.00
2023-01-17T22:54:11.545Z,99.99
2023-01-17T22:56:43.418Z,99.88
2023-01-17T22:59:13.597Z,99.90
2023-01-17T23:01:49.105Z,99.61
2023-01-17T23:04:17.345Z,100.00
2023-01-17T23:06:43.952Z,100.00
2023-01-17T23:09:13.417Z,99.99
2023-01-17T23:11:43.320Z,99.62
2023-01-17T23:14:10.356Z,99.56
2023-01-17T23:17:00.744Z,99.38
2023-01-17T23:19:30.411Z,99.15
2023-01-17T23:22:19.356Z,98.98
2023-01-17T23:24:53.577Z,98.65
2023-01-17T23:27:43.213Z,99.21
2023-01-17T23:30:11.504Z,98.75
2023-01-17T23:32:45.140Z,98.35
2023-01-17T23:35:11.986Z,98.10
2023-01-17T23:38:05.951Z,97.56
2023-01-17T23:40:33.000Z,97.76
2023-01-17T23:43:20.807Z,97.71
2023-01-17T23:45:47.368Z,97.32
2023-01-17T23:48:14.085Z,97.15
2023-01-17T23:50:47.522Z,97.21
2023-01-17T23:53:22.581Z,96.16
2023-01-17T23:55:54.256Z,95.04
2023-01-17T23:58:30.618Z,95.29
